• Join FlightAware (Why Join?)
  • Login
  • US Flag 
11:30AM EDT


 

Airport Tracker/Info


-or-


 

Live Flight TrackerFlight Track Log ✈ BVN7571 ✈ 22-Aug-2013 ✈ KEAR - KOMA

Flight Track Log - Related Links

Times and Time Zones

All times are in EDT time to prevent confusion due to time zone crossing. See the BVN7571 flight status page for this flight to view local times or setup timezone preferences in your user account.

Time Position Orientation Groundspeed Altitude Reporting Facility
EDT Latitude Longitude Course Direction KTS MPH feet Rate Location/Type
08:08PM 40.7561 -98.9286 75° East 106 122 3,900  Level Minneapolis Center
08:09PM 40.7642 -98.8900 75° East 110 127 4,500 600 Climbing Minneapolis Center
08:10PM 40.7714 -98.8503 76° East 111 128 5,200 660 Climbing Minneapolis Center
08:11PM 40.7811 -98.8003 76° East 114 131 5,900 660 Climbing Minneapolis Center
08:12PM 40.7903 -98.7578 74° East 117 135 6,600 540 Climbing Minneapolis Center
08:13PM 40.7859 -98.7105 75° East  Level Estimated
08:13PM 40.7981 -98.7136 77° East 121 139 7,100  Level Minneapolis Center
08:14PM 40.8069 -98.6650 76° East 128 147 7,500 420 Climbing Minneapolis Center
08:15PM 40.8167 -98.6111 77° East 139 160 8,000 480 Climbing Minneapolis Center
08:16PM 40.8289 -98.5469 76° East 147 169 8,600 480 Climbing Minneapolis Center
08:17PM 40.8394 -98.4917 76° East 152 175 9,000 420 Climbing Minneapolis Center
08:18PM 40.8503 -98.4350 76° East 156 180 9,500 480 Climbing Minneapolis Center
08:19PM 40.8606 -98.3772 77° East 161 185 10,000 420 Climbing Minneapolis Center
08:20PM 40.8711 -98.3186 77° East 163 188 10,400 420 Climbing Minneapolis Center
08:21PM 40.8839 -98.2489 76° East 164 189 10,900 240 Climbing Minneapolis Center
08:22PM 40.8947 -98.1869 77° East 170 196 11,000  Climbing Minneapolis Center
08:23PM 40.9083 -98.1203 75° East 182 209 11,000 -60 Level Minneapolis Center
08:24PM 40.9211 -98.0531 76° East 187 215 10,900 -60 Descending Minneapolis Center
08:25PM 40.9339 -97.9878 75° East 186 214 10,900  Level Minneapolis Center
08:26PM 40.9453 -97.9228 77° East 183 211 10,900  Level Minneapolis Center
08:27PM 40.9594 -97.8447 76° East 182 209 10,900  Level Minneapolis Center
08:28PM 40.9725 -97.7783 75° East 185 213 10,900  Level Minneapolis Center
08:29PM 40.9839 -97.7133 77° East 183 211 10,900  Level Minneapolis Center
08:30PM 40.9961 -97.6483 76° East 183 211 11,000  Climbing Minneapolis Center
08:31PM 41.0081 -97.5833 76° East 183 211 10,900 -60 Descending Minneapolis Center
08:33PM 41.0192 -97.5206 77° East 178 205 10,900  Level Minneapolis Center
08:34PM 41.0328 -97.4464 76° East 175 201 10,900  Level Minneapolis Center
08:35PM 41.0439 -97.3847 77° East 172 198 11,000  Climbing Minneapolis Center
08:36PM 41.0544 -97.3211 78° East 173 199 11,000 -60 Level Minneapolis Center
08:37PM 41.0650 -97.2583 77° East 175 201 10,900 -60 Descending Minneapolis Center
08:38PM 41.0764 -97.1967 76° East 174 200 10,900  Level Minneapolis Center
08:39PM 41.0878 -97.1358 76° East 173 199 11,000  Climbing Minneapolis Center
08:40PM 41.0992 -97.0742 76° East 172 198 10,900  Descending Minneapolis Center
08:41PM 41.1128 -97.0000 76° East 173 199 11,000  Climbing Minneapolis Center
08:42PM 41.1233 -96.9378 77° East 173 199 11,000 -60 Level Minneapolis Center
08:43PM 41.1339 -96.8753 77° East 174 200 10,900  Descending Minneapolis Center
08:44PM 41.1314 -96.8264 94° East 173 199 11,000  Climbing Minneapolis Center
08:45PM 41.1425 -96.7644 77° East 172 198 11,000  Level Minneapolis Center
08:46PM 41.1550 -96.6967 76° East 173 199 11,000 -180 Level Minneapolis Center
08:47PM 41.1681 -96.6344 74° East 178 205 10,700 -480 Descending Minneapolis Center
08:48PM 41.1789 -96.5697 77° East 199 229 10,100 -540 Descending Minneapolis Center
08:49PM 41.1936 -96.5017 74° East 195 224 9,700 -660 Descending Minneapolis Center
08:50PM 41.2061 -96.4311 77° East 195 224 8,800 -1,080 Descending Minneapolis Center
08:51PM 41.2219 -96.3492 76° East 199 229 7,500 -1,080 Descending Minneapolis Center
08:52PM 41.2325 -96.2869 77° East 185 213 6,700 -960 Descending Minneapolis Center
08:52PM 41.2436 -96.2514 67° East 190 219 6,200 -900 Descending Minneapolis Center
08:53PM 41.2450 -96.2192 87° East 182 209 5,700 -960 Descending Minneapolis Center
08:54PM 41.2572 -96.1486 77° East 181 208 4,700 -900 Descending Minneapolis Center
08:55PM 41.2708 -96.0969 71° East 174 200 4,000 -540 Descending Minneapolis Center
08:55PM 41.2806 -96.0636 69° East 175 201 3,900 -660 Descending Minneapolis Center
08:56PM 41.2931 -96.0225 68° East 172 198 3,200 -960 Descending Minneapolis Center
08:57PM 41.3083 -95.9653 70° East 163 188 2,400 -900 Descending Minneapolis Center
08:58PM 41.3117 -95.9036 86° East 141 162 1,000 -960 Descending Minneapolis Center
09:00PM 41.3032 -95.8941 37° Northeast  Level Estimated